PTLID SBMO-SBRF
Flight info
| Callsign | PTLID |
|---|---|
| Flight time | 0h 41m |
| Altitude | 21000 |
| Route | UKARI DCT ENTIV |
| Aircraft | TBM8/L-SDFGRWY/S |
Departure
| Time | 2026-04-21 20:02 |
|---|---|
| Airport | Zumbi dos Palmares International Airport (SBMO) |
Arrival
| Time | 2026-04-21 20:44 |
|---|---|
| Airport | Recife/Guararapes - Gilberto Freyre International Airport (SBRF) |
| Time | Latitude | Longitude | Altitude | Speed | Heading |
|---|---|---|---|---|---|
| 2026-04-21 19:50 | -9.51436 | -35.79081 | 379 ft | 0 kts | 191° |
| 2026-04-21 19:52 | -9.51422 | -35.79079 | 379 ft | 2 kts | 190° |
| 2026-04-21 19:52 | -9.51406 | -35.79076 | 379 ft | 2 kts | 187° |
| 2026-04-21 19:53 | -9.51389 | -35.79074 | 379 ft | 2 kts | 183° |
| 2026-04-21 19:53 | -9.51373 | -35.79075 | 379 ft | 2 kts | 169° |
| 2026-04-21 19:53 | -9.51362 | -35.79083 | 379 ft | 1 kts | 103° |
| 2026-04-21 19:56 | -9.51362 | -35.79071 | 379 ft | 5 kts | 79° |
| 2026-04-21 19:56 | -9.51337 | -35.79025 | 379 ft | 8 kts | 37° |
| 2026-04-21 19:56 | -9.51295 | -35.78992 | 378 ft | 6 kts | 51° |
| 2026-04-21 19:57 | -9.51285 | -35.78962 | 378 ft | 3 kts | 89° |
| 2026-04-21 19:57 | -9.51284 | -35.78952 | 378 ft | 0 kts | 89° |
| 2026-04-21 19:57 | -9.51284 | -35.78947 | 378 ft | 3 kts | 91° |
| 2026-04-21 19:57 | -9.51290 | -35.78895 | 378 ft | 10 kts | 98° |
| 2026-04-21 19:58 | -9.51306 | -35.78798 | 377 ft | 14 kts | 107° |
| 2026-04-21 19:58 | -9.51327 | -35.78705 | 376 ft | 15 kts | 102° |
| 2026-04-21 19:58 | -9.51352 | -35.78576 | 375 ft | 22 kts | 101° |
| 2026-04-21 19:58 | -9.51378 | -35.78437 | 374 ft | 20 kts | 101° |
| 2026-04-21 19:59 | -9.51404 | -35.78302 | 373 ft | 19 kts | 101° |
| 2026-04-21 19:59 | -9.51415 | -35.78187 | 372 ft | 19 kts | 75° |
| 2026-04-21 19:59 | -9.51378 | -35.78117 | 372 ft | 0 kts | 56° |
| 2026-04-21 20:00 | -9.51363 | -35.78096 | 372 ft | 10 kts | 55° |
| 2026-04-21 20:00 | -9.51318 | -35.78060 | 372 ft | 11 kts | 359° |
| 2026-04-21 20:00 | -9.51284 | -35.78101 | 372 ft | 4 kts | 279° |
| 2026-04-21 20:01 | -9.51283 | -35.78101 | 372 ft | 0 kts | 279° |
| 2026-04-21 20:01 | -9.51283 | -35.78102 | 372 ft | 2 kts | 279° |
| 2026-04-21 20:02 | -9.51245 | -35.78292 | 376 ft | 56 kts | 281° |
| 2026-04-21 20:02 | -9.51139 | -35.78853 | 418 ft | 100 kts | 281° |
| 2026-04-21 20:02 | -9.50987 | -35.79603 | 671 ft | 118 kts | 281° |
| 2026-04-21 20:02 | -9.50774 | -35.80457 | 1004 ft | 132 kts | 283° |
| 2026-04-21 20:03 | -9.50502 | -35.81367 | 1400 ft | 136 kts | 284° |
| 2026-04-21 20:03 | -9.50180 | -35.82318 | 1735 ft | 150 kts | 283° |
| 2026-04-21 20:03 | -9.50170 | -35.83372 | 2103 ft | 153 kts | 269° |
| 2026-04-21 20:03 | -9.49722 | -35.84323 | 2571 ft | 157 kts | 321° |
| 2026-04-21 20:04 | -9.48715 | -35.84728 | 2994 ft | 158 kts | 356° |
| 2026-04-21 20:04 | -9.47670 | -35.84510 | 3487 ft | 152 kts | 32° |
| 2026-04-21 20:04 | -9.46812 | -35.83890 | 3942 ft | 152 kts | 41° |
| 2026-04-21 20:04 | -9.45957 | -35.83244 | 4404 ft | 153 kts | 40° |
| 2026-04-21 20:05 | -9.45099 | -35.82597 | 4868 ft | 155 kts | 40° |
| 2026-04-21 20:05 | -9.44228 | -35.81941 | 5305 ft | 157 kts | 40° |
| 2026-04-21 20:05 | -9.43348 | -35.81281 | 5760 ft | 158 kts | 40° |
| 2026-04-21 20:05 | -9.42461 | -35.80618 | 6208 ft | 159 kts | 39° |
| 2026-04-21 20:06 | -9.41568 | -35.79948 | 6624 ft | 161 kts | 40° |
| 2026-04-21 20:06 | -9.40665 | -35.79273 | 7049 ft | 161 kts | 40° |
| 2026-04-21 20:06 | -9.39759 | -35.78594 | 7472 ft | 162 kts | 39° |
| 2026-04-21 20:06 | -9.38845 | -35.77911 | 7892 ft | 164 kts | 40° |
| 2026-04-21 20:07 | -9.37926 | -35.77223 | 8319 ft | 165 kts | 39° |
| 2026-04-21 20:07 | -9.37001 | -35.76530 | 8751 ft | 166 kts | 39° |
| 2026-04-21 20:07 | -9.36066 | -35.75832 | 9181 ft | 168 kts | 40° |
| 2026-04-21 20:07 | -9.35127 | -35.75129 | 9627 ft | 168 kts | 39° |
| 2026-04-21 20:08 | -9.34182 | -35.74422 | 10033 ft | 169 kts | 39° |
| 2026-04-21 20:08 | -9.33229 | -35.73709 | 10424 ft | 171 kts | 39° |
| 2026-04-21 20:08 | -9.32273 | -35.72994 | 10821 ft | 171 kts | 39° |
| 2026-04-21 20:08 | -9.31313 | -35.72276 | 11210 ft | 172 kts | 39° |
| 2026-04-21 20:09 | -9.30350 | -35.71555 | 11600 ft | 173 kts | 39° |
| 2026-04-21 20:09 | -9.29392 | -35.70840 | 11980 ft | 174 kts | 39° |
| 2026-04-21 20:09 | -9.28420 | -35.70113 | 12373 ft | 174 kts | 39° |
| 2026-04-21 20:09 | -9.27441 | -35.69380 | 12769 ft | 176 kts | 39° |
| 2026-04-21 20:10 | -9.26458 | -35.68645 | 13186 ft | 175 kts | 39° |
| 2026-04-21 20:10 | -9.25475 | -35.67911 | 13552 ft | 176 kts | 39° |
| 2026-04-21 20:10 | -9.24484 | -35.67168 | 13897 ft | 178 kts | 39° |
| 2026-04-21 20:10 | -9.23487 | -35.66425 | 14219 ft | 178 kts | 39° |
| 2026-04-21 20:11 | -9.22488 | -35.65677 | 14553 ft | 179 kts | 39° |
| 2026-04-21 20:11 | -9.21484 | -35.64927 | 14879 ft | 180 kts | 39° |
| 2026-04-21 20:11 | -9.20474 | -35.64173 | 15205 ft | 180 kts | 39° |
| 2026-04-21 20:11 | -9.19463 | -35.63416 | 15535 ft | 181 kts | 39° |
| 2026-04-21 20:12 | -9.18448 | -35.62659 | 15858 ft | 182 kts | 38° |
| 2026-04-21 20:12 | -9.17431 | -35.61897 | 16173 ft | 182 kts | 38° |
| 2026-04-21 20:12 | -9.16753 | -35.61390 | 16380 ft | 183 kts | 38° |
| 2026-04-21 20:12 | -9.15377 | -35.60365 | 16799 ft | 184 kts | 38° |
| 2026-04-21 20:13 | -9.14346 | -35.59593 | 17104 ft | 185 kts | 38° |
| 2026-04-21 20:13 | -9.13310 | -35.58819 | 17417 ft | 185 kts | 38° |
| 2026-04-21 20:13 | -9.12271 | -35.58044 | 17730 ft | 186 kts | 38° |
| 2026-04-21 20:13 | -9.11229 | -35.57265 | 18033 ft | 187 kts | 38° |
| 2026-04-21 20:14 | -9.10182 | -35.56482 | 18328 ft | 187 kts | 37° |
| 2026-04-21 20:14 | -9.09130 | -35.55695 | 18587 ft | 188 kts | 37° |
| 2026-04-21 20:14 | -9.08071 | -35.54906 | 18830 ft | 190 kts | 37° |
| 2026-04-21 20:14 | -9.07007 | -35.54111 | 19071 ft | 191 kts | 37° |
| 2026-04-21 20:15 | -9.05948 | -35.53321 | 19314 ft | 192 kts | 37° |
| 2026-04-21 20:15 | -9.04873 | -35.52518 | 19561 ft | 193 kts | 37° |
| 2026-04-21 20:15 | -9.03791 | -35.51711 | 19811 ft | 194 kts | 37° |
| 2026-04-21 20:15 | -9.02704 | -35.50898 | 20051 ft | 195 kts | 37° |
| 2026-04-21 20:16 | -9.01609 | -35.50082 | 20287 ft | 196 kts | 36° |
| 2026-04-21 20:16 | -9.00509 | -35.49261 | 20530 ft | 197 kts | 36° |
| 2026-04-21 20:16 | -8.99403 | -35.48435 | 20769 ft | 198 kts | 36° |
| 2026-04-21 20:16 | -8.98290 | -35.47605 | 20949 ft | 202 kts | 36° |
| 2026-04-21 20:17 | -8.97114 | -35.46727 | 20959 ft | 216 kts | 36° |
| 2026-04-21 20:17 | -8.95870 | -35.45799 | 20974 ft | 228 kts | 36° |
| 2026-04-21 20:17 | -8.94559 | -35.44821 | 20975 ft | 240 kts | 36° |
| 2026-04-21 20:17 | -8.93185 | -35.43796 | 20969 ft | 250 kts | 36° |
| 2026-04-21 20:18 | -8.92250 | -35.43098 | 20969 ft | 255 kts | 36° |
| 2026-04-21 20:18 | -8.90303 | -35.41647 | 20968 ft | 264 kts | 36° |
| 2026-04-21 20:18 | -8.88813 | -35.40536 | 20964 ft | 269 kts | 36° |
| 2026-04-21 20:18 | -8.87314 | -35.39417 | 20969 ft | 273 kts | 36° |
| 2026-04-21 20:19 | -8.85750 | -35.38251 | 20970 ft | 277 kts | 36° |
| 2026-04-21 20:19 | -8.84176 | -35.37104 | 20968 ft | 280 kts | 31° |
| 2026-04-21 20:19 | -8.82344 | -35.36448 | 20969 ft | 282 kts | 14° |
| 2026-04-21 20:19 | -8.80623 | -35.35576 | 20964 ft | 284 kts | 40° |
| 2026-04-21 20:20 | -8.79430 | -35.33987 | 20966 ft | 285 kts | 59° |
| 2026-04-21 20:20 | -8.78084 | -35.32535 | 20966 ft | 286 kts | 33° |
| 2026-04-21 20:20 | -8.76241 | -35.31773 | 20969 ft | 287 kts | 16° |
| 2026-04-21 20:20 | -8.74316 | -35.31211 | 20970 ft | 289 kts | 18° |
| 2026-04-21 20:21 | -8.72434 | -35.30486 | 20963 ft | 290 kts | 24° |
| 2026-04-21 20:21 | -8.71243 | -35.29873 | 20971 ft | 291 kts | 30° |
| 2026-04-21 20:21 | -8.69613 | -35.28660 | 20970 ft | 292 kts | 42° |
| 2026-04-21 20:21 | -8.68160 | -35.27227 | 20898 ft | 294 kts | 45° |
| 2026-04-21 20:22 | -8.66741 | -35.25842 | 20535 ft | 271 kts | 42° |
| 2026-04-21 20:22 | -8.64079 | -35.23518 | 19818 ft | 243 kts | 42° |
| 2026-04-21 20:22 | -8.62806 | -35.22374 | 19467 ft | 246 kts | 43° |
| 2026-04-21 20:23 | -8.61523 | -35.21221 | 19128 ft | 247 kts | 43° |
| 2026-04-21 20:23 | -8.60234 | -35.20067 | 18793 ft | 247 kts | 43° |
| 2026-04-21 20:23 | -8.58948 | -35.18918 | 18466 ft | 246 kts | 43° |
| 2026-04-21 20:23 | -8.57664 | -35.17770 | 18118 ft | 246 kts | 43° |
| 2026-04-21 20:24 | -8.56386 | -35.16627 | 17734 ft | 244 kts | 43° |
| 2026-04-21 20:24 | -8.55118 | -35.15492 | 17356 ft | 243 kts | 43° |
| 2026-04-21 20:24 | -8.53870 | -35.14377 | 16985 ft | 242 kts | 43° |
| 2026-04-21 20:24 | -8.52616 | -35.13256 | 16617 ft | 240 kts | 43° |
| 2026-04-21 20:25 | -8.51353 | -35.12127 | 16250 ft | 239 kts | 43° |
| 2026-04-21 20:25 | -8.50129 | -35.11033 | 15891 ft | 237 kts | 43° |
| 2026-04-21 20:25 | -8.48896 | -35.09932 | 15538 ft | 236 kts | 43° |
| 2026-04-21 20:25 | -8.47671 | -35.08835 | 15183 ft | 235 kts | 44° |
| 2026-04-21 20:26 | -8.46448 | -35.07742 | 14797 ft | 235 kts | 44° |
| 2026-04-21 20:26 | -8.45223 | -35.06648 | 14405 ft | 235 kts | 44° |
| 2026-04-21 20:26 | -8.43998 | -35.05553 | 14024 ft | 234 kts | 44° |
| 2026-04-21 20:26 | -8.42778 | -35.04463 | 13617 ft | 233 kts | 44° |
| 2026-04-21 20:27 | -8.41567 | -35.03382 | 13192 ft | 232 kts | 44° |
| 2026-04-21 20:27 | -8.40362 | -35.02304 | 12767 ft | 231 kts | 44° |
| 2026-04-21 20:27 | -8.39161 | -35.01234 | 12346 ft | 230 kts | 43° |
| 2026-04-21 20:27 | -8.37918 | -35.00227 | 11933 ft | 229 kts | 39° |
| 2026-04-21 20:28 | -8.36621 | -34.99287 | 11523 ft | 228 kts | 38° |
| 2026-04-21 20:28 | -8.35342 | -34.98343 | 11119 ft | 227 kts | 39° |
| 2026-04-21 20:28 | -8.34081 | -34.97391 | 10761 ft | 225 kts | 39° |
| 2026-04-21 20:28 | -8.32844 | -34.96461 | 10489 ft | 219 kts | 39° |
| 2026-04-21 20:29 | -8.31636 | -34.95553 | 10262 ft | 214 kts | 39° |
| 2026-04-21 20:29 | -8.30463 | -34.94673 | 10056 ft | 211 kts | 39° |
| 2026-04-21 20:29 | -8.29295 | -34.93796 | 9843 ft | 208 kts | 39° |
| 2026-04-21 20:29 | -8.28139 | -34.92927 | 9619 ft | 207 kts | 39° |
| 2026-04-21 20:30 | -8.26967 | -34.92096 | 9386 ft | 206 kts | 32° |
| 2026-04-21 20:30 | -8.25667 | -34.91479 | 9168 ft | 206 kts | 24° |
| 2026-04-21 20:30 | -8.24353 | -34.90924 | 8963 ft | 204 kts | 26° |
| 2026-04-21 20:30 | -8.23067 | -34.90338 | 8765 ft | 202 kts | 27° |
| 2026-04-21 20:31 | -8.21791 | -34.89748 | 8563 ft | 201 kts | 27° |
| 2026-04-21 20:31 | -8.20523 | -34.89164 | 8369 ft | 200 kts | 27° |
| 2026-04-21 20:31 | -8.19257 | -34.88583 | 8170 ft | 199 kts | 27° |
| 2026-04-21 20:31 | -8.18000 | -34.88005 | 7980 ft | 198 kts | 27° |
| 2026-04-21 20:32 | -8.16764 | -34.87438 | 7788 ft | 198 kts | 27° |
| 2026-04-21 20:32 | -8.15515 | -34.86864 | 7598 ft | 196 kts | 27° |
| 2026-04-21 20:32 | -8.14268 | -34.86291 | 7405 ft | 196 kts | 27° |
| 2026-04-21 20:32 | -8.13032 | -34.85723 | 7216 ft | 195 kts | 27° |
| 2026-04-21 20:33 | -8.11801 | -34.85158 | 7032 ft | 194 kts | 27° |
| 2026-04-21 20:33 | -8.10589 | -34.84603 | 6946 ft | 188 kts | 28° |
| 2026-04-21 20:33 | -8.09426 | -34.84069 | 6940 ft | 180 kts | 28° |
| 2026-04-21 20:33 | -8.08296 | -34.83553 | 6935 ft | 176 kts | 27° |
| 2026-04-21 20:34 | -8.07101 | -34.83350 | 6930 ft | 177 kts | 355° |
| 2026-04-21 20:34 | -8.05916 | -34.83673 | 6932 ft | 176 kts | 341° |
| 2026-04-21 20:34 | -8.04763 | -34.84089 | 6931 ft | 176 kts | 341° |
| 2026-04-21 20:34 | -8.03627 | -34.84489 | 6932 ft | 175 kts | 342° |
| 2026-04-21 20:35 | -8.02473 | -34.84890 | 6933 ft | 175 kts | 342° |
| 2026-04-21 20:35 | -8.01322 | -34.85288 | 6932 ft | 175 kts | 342° |
| 2026-04-21 20:35 | -8.00171 | -34.85687 | 6934 ft | 175 kts | 342° |
| 2026-04-21 20:35 | -7.99018 | -34.86085 | 6930 ft | 175 kts | 342° |
| 2026-04-21 20:36 | -7.97869 | -34.86483 | 6935 ft | 174 kts | 342° |
| 2026-04-21 20:36 | -7.96722 | -34.86881 | 6933 ft | 174 kts | 342° |
| 2026-04-21 20:36 | -7.95578 | -34.87276 | 6933 ft | 174 kts | 342° |
| 2026-04-21 20:36 | -7.94433 | -34.87677 | 6935 ft | 174 kts | 340° |
| 2026-04-21 20:37 | -7.93465 | -34.88374 | 6936 ft | 173 kts | 306° |
| 2026-04-21 20:37 | -7.92975 | -34.89459 | 6935 ft | 170 kts | 276° |
| 2026-04-21 20:37 | -7.93051 | -34.90622 | 6938 ft | 166 kts | 251° |
| 2026-04-21 20:37 | -7.93422 | -34.91759 | 6758 ft | 175 kts | 247° |
| 2026-04-21 20:38 | -7.93823 | -34.92941 | 6577 ft | 180 kts | 248° |
| 2026-04-21 20:38 | -7.94222 | -34.94150 | 6401 ft | 183 kts | 248° |
| 2026-04-21 20:38 | -7.94625 | -34.95374 | 6215 ft | 184 kts | 247° |
| 2026-04-21 20:38 | -7.95231 | -34.96483 | 6018 ft | 179 kts | 224° |
| 2026-04-21 20:39 | -7.96080 | -34.97406 | 5824 ft | 179 kts | 222° |
| 2026-04-21 20:39 | -7.97141 | -34.97962 | 5627 ft | 172 kts | 182° |
| 2026-04-21 20:39 | -7.98281 | -34.97706 | 5403 ft | 170 kts | 158° |
| 2026-04-21 20:39 | -7.99439 | -34.97263 | 4780 ft | 187 kts | 158° |
| 2026-04-21 20:40 | -8.00688 | -34.96784 | 4061 ft | 195 kts | 158° |
| 2026-04-21 20:40 | -8.01949 | -34.96299 | 3363 ft | 197 kts | 159° |
| 2026-04-21 20:40 | -8.03180 | -34.95700 | 2650 ft | 194 kts | 151° |
| 2026-04-21 20:40 | -8.04261 | -34.95086 | 1931 ft | 161 kts | 151° |
| 2026-04-21 20:41 | -8.05157 | -34.94604 | 1461 ft | 131 kts | 158° |
| 2026-04-21 20:41 | -8.05971 | -34.94358 | 1195 ft | 115 kts | 165° |
| 2026-04-21 20:41 | -8.06723 | -34.94171 | 989 ft | 104 kts | 167° |
| 2026-04-21 20:41 | -8.07319 | -34.94028 | 876 ft | 78 kts | 162° |
| 2026-04-21 20:42 | -8.07804 | -34.93891 | 781 ft | 68 kts | 161° |
| 2026-04-21 20:42 | -8.08259 | -34.93746 | 704 ft | 76 kts | 158° |
| 2026-04-21 20:42 | -8.08807 | -34.93575 | 605 ft | 86 kts | 160° |
| 2026-04-21 20:42 | -8.09382 | -34.93389 | 497 ft | 88 kts | 159° |
| 2026-04-21 20:43 | -8.09963 | -34.93180 | 410 ft | 91 kts | 160° |
| 2026-04-21 20:43 | -8.10570 | -34.92990 | 263 ft | 91 kts | 162° |
| 2026-04-21 20:43 | -8.11130 | -34.92808 | 108 ft | 77 kts | 161° |
| 2026-04-21 20:43 | -8.11604 | -34.92652 | 42 ft | 66 kts | 163° |
| 2026-04-21 20:44 | -8.11938 | -34.92537 | 27 ft | 22 kts | 163° |
| 2026-04-21 20:44 | -8.12012 | -34.92515 | 28 ft | 2 kts | 163° |
| 2026-04-21 20:44 | -8.12033 | -34.92509 | 28 ft | 6 kts | 164° |
| 2026-04-21 20:44 | -8.12098 | -34.92490 | 28 ft | 13 kts | 163° |
| 2026-04-21 20:45 | -8.12194 | -34.92461 | 29 ft | 16 kts | 161° |
| 2026-04-21 20:45 | -8.12308 | -34.92422 | 30 ft | 18 kts | 166° |
| 2026-04-21 20:45 | -8.12386 | -34.92450 | 31 ft | 16 kts | 303° |
| 2026-04-21 20:45 | -8.12334 | -34.92532 | 30 ft | 0 kts | 306° |
| 2026-04-21 20:46 | -8.12321 | -34.92550 | 30 ft | 8 kts | 305° |
| 2026-04-21 20:46 | -8.12271 | -34.92623 | 29 ft | 17 kts | 305° |
| 2026-04-21 20:46 | -8.12216 | -34.92705 | 29 ft | 12 kts | 308° |
| 2026-04-21 20:47 | -8.12179 | -34.92726 | 29 ft | 0 kts | 342° |